Time;durP1;ratioP1;P1;durP2;ratioP2;P2;SDS_P1;SDS_P2;PMS_P1;PMS_P2;Temp;Humidity;BMP_temperature;BMP_pressure;BME280_temperature;BME280_humidity;BME280_pressure;Samples;Min_cycle;Max_cycle;Signal;HPM_P1;HPM_P2
2023/03/09 00:02:00;;;;;;;10.40;7.37;;;2.70;69.80;;;;;;5058735;28;20476;-75
2023/03/09 00:04:26;;;;;;;9.47;7.30;;;2.70;69.90;;;;;;5095396;28;20044;-75
2023/03/09 00:06:51;;;;;;;11.37;7.20;;;2.70;69.90;;;;;;5078801;28;20097;-75
2023/03/09 00:09:18;;;;;;;11.57;7.70;;;3.10;70.20;;;;;;5112697;28;20078;-75
2023/03/09 00:11:47;;;;;;;12.07;7.90;;;2.70;70.00;;;;;;5074776;28;20444;-75
2023/03/09 00:14:14;;;;;;;10.77;7.87;;;2.70;70.30;;;;;;5091950;28;20101;-75
2023/03/09 00:16:40;;;;;;;11.17;7.87;;;2.70;70.60;;;;;;5061496;28;20064;-75
2023/03/09 00:19:06;;;;;;;11.97;8.00;;;2.70;70.70;;;;;;5063986;28;20047;-75
2023/03/09 00:21:41;;;;;;;11.30;7.50;;;2.70;70.70;;;;;;5070222;28;20076;-75
2023/03/09 00:24:08;;;;;;;9.48;6.32;;;2.90;71.00;;;;;;5061822;28;20054;-74
2023/03/09 00:26:38;;;;;;;11.07;7.33;;;2.70;71.00;;;;;;5078272;28;20036;-75
2023/03/09 00:29:09;;;;;;;10.43;7.00;;;2.60;71.00;;;;;;5078212;28;20110;-75
2023/03/09 00:31:35;;;;;;;12.00;7.50;;;2.60;71.20;;;;;;5090874;28;20099;-75
2023/03/09 00:34:01;;;;;;;11.20;7.77;;;2.70;71.60;;;;;;5091092;28;20107;-75
2023/03/09 00:36:26;;;;;;;10.00;7.30;;;2.60;71.70;;;;;;5044893;28;20535;-75
2023/03/09 00:38:54;;;;;;;10.20;7.10;;;2.80;72.00;;;;;;5061768;28;20064;-74
2023/03/09 00:41:21;;;;;;;10.27;6.97;;;2.50;71.90;;;;;;5061057;28;20051;-75
2023/03/09 00:43:47;;;;;;;12.37;7.60;;;2.50;71.90;;;;;;5061264;28;20391;-74
2023/03/09 00:46:14;;;;;;;10.00;6.37;;;2.50;72.00;;;;;;5078060;28;20036;-75
2023/03/09 00:48:40;;;;;;;12.73;7.90;;;2.50;72.10;;;;;;5077722;28;20048;-75
2023/03/09 00:51:07;;;;;;;11.57;7.70;;;2.50;72.30;;;;;;5068829;28;20071;-75
2023/03/09 00:53:33;;;;;;;12.27;7.33;;;2.70;72.40;;;;;;5061747;28;20039;-75
2023/03/09 00:56:05;;;;;;;11.67;7.47;;;2.50;72.30;;;;;;5044604;28;20047;-75
2023/03/09 00:58:31;;;;;;;11.60;7.37;;;2.40;72.40;;;;;;5077643;28;20043;-75
2023/03/09 01:00:56;;;;;;;11.43;7.47;;;2.70;72.80;;;;;;5078014;28;20658;-75
2023/03/09 01:03:23;;;;;;;11.93;7.83;;;2.40;72.70;;;;;;5060650;28;20127;-75
2023/03/09 01:05:49;;;;;;;11.40;7.20;;;2.40;72.60;;;;;;5060884;28;20044;-75
2023/03/09 01:08:15;;;;;;;12.73;8.57;;;2.40;72.60;;;;;;5060620;28;20040;-75
2023/03/09 01:10:41;;;;;;;11.17;7.87;;;2.40;72.70;;;;;;5077060;28;20039;-75
2023/03/09 01:13:09;;;;;;;14.40;8.93;;;2.40;72.80;;;;;;5060068;28;20028;-75
2023/03/09 01:15:35;;;;;;;13.13;8.27;;;2.50;73.00;;;;;;5060826;28;20579;-75
2023/03/09 01:18:01;;;;;;;14.07;8.67;;;2.40;73.00;;;;;;5077423;28;20035;-75
2023/03/09 01:20:27;;;;;;;13.33;8.87;;;2.40;73.10;;;;;;5093316;28;20475;-75
2023/03/09 01:22:53;;;;;;;11.73;8.10;;;2.30;73.10;;;;;;5090526;28;20041;-75
2023/03/09 01:25:18;;;;;;;13.30;8.40;;;2.40;73.10;;;;;;5060344;28;20032;-75
2023/03/09 01:27:44;;;;;;;15.63;9.17;;;2.40;73.10;;;;;;5060743;28;20047;-75
2023/03/09 01:30:11;;;;;;;14.93;9.10;;;2.30;73.10;;;;;;5060652;28;20043;-75
2023/03/09 01:32:37;;;;;;;14.27;9.10;;;2.30;73.20;;;;;;5060472;28;20032;-75
2023/03/09 01:35:04;;;;;;;14.47;9.77;;;2.50;73.30;;;;;;5044117;28;20048;-75
2023/03/09 01:37:30;;;;;;;15.17;9.97;;;2.30;73.20;;;;;;5060143;28;20093;-75
2023/03/09 01:39:56;;;;;;;15.07;9.20;;;2.20;73.20;;;;;;5064244;28;20040;-75
2023/03/09 01:42:22;;;;;;;14.43;9.23;;;2.40;73.60;;;;;;5060234;28;20131;-75
2023/03/09 01:45:11;;;;;;;16.03;9.40;;;2.30;73.60;;;;;;5041322;28;20119;-75
2023/03/09 01:47:37;;;;;;;14.43;9.90;;;2.30;73.70;;;;;;5056562;28;20076;-75
2023/03/09 01:50:04;;;;;;;16.00;10.97;;;2.20;73.70;;;;;;5057953;28;20074;-75
2023/03/09 01:52:33;;;;;;;16.20;10.03;;;2.20;73.70;;;;;;5060069;28;20040;-75
2023/03/09 01:55:12;;;;;;;16.47;10.53;;;2.20;74.00;;;;;;5070967;28;20043;-75
2023/03/09 01:57:45;;;;;;;14.60;10.13;;;2.20;74.10;;;;;;5077399;28;20388;-75
2023/03/09 02:00:14;;;;;;;16.35;10.43;;;2.60;74.40;;;;;;5076208;28;20040;-74
2023/03/09 02:02:42;;;;;;;14.50;9.40;;;2.20;74.20;;;;;;5076059;28;20040;-75
2023/03/09 02:05:12;;;;;;;14.67;10.03;;;2.40;74.40;;;;;;5059703;28;20040;-75
2023/03/09 02:07:42;;;;;;;13.67;9.23;;;2.20;74.40;;;;;;5059635;28;20036;-75
2023/03/09 02:10:18;;;;;;;14.00;9.33;;;2.20;74.50;;;;;;5075696;28;20491;-75
2023/03/09 02:12:52;;;;;;;16.00;9.53;;;2.20;74.50;;;;;;5059370;28;20036;-75
2023/03/09 02:15:20;;;;;;;17.02;10.35;;;2.20;74.50;;;;;;5076485;28;20059;-75
2023/03/09 02:17:46;;;;;;;15.73;9.90;;;2.20;74.60;;;;;;5058610;28;20047;-76
2023/03/09 02:20:28;;;;;;;14.73;9.80;;;2.20;74.60;;;;;;5059190;28;20052;-75
2023/03/09 02:22:54;;;;;;;16.53;10.07;;;2.20;74.80;;;;;;5059016;28;20040;-75
2023/03/09 02:25:27;;;;;;;15.87;10.03;;;2.20;74.70;;;;;;5072175;28;20044;-75
2023/03/09 02:27:54;;;;;;;16.73;11.00;;;2.20;74.90;;;;;;5058426;28;20055;-75
2023/03/09 02:30:21;;;;;;;17.80;11.27;;;2.40;75.00;;;;;;5075392;28;20032;-75
2023/03/09 02:32:47;;;;;;;15.67;10.73;;;2.30;74.90;;;;;;5058784;28;20118;-75
2023/03/09 02:35:13;;;;;;;17.23;11.17;;;2.20;74.90;;;;;;5092163;28;20513;-75
2023/03/09 02:37:40;;;;;;;17.43;11.10;;;2.20;74.90;;;;;;5075635;28;20047;-75
2023/03/09 02:40:26;;;;;;;17.50;11.17;;;2.30;74.90;;;;;;5059286;28;20123;-75
2023/03/09 02:42:52;;;;;;;15.57;10.93;;;2.30;74.90;;;;;;5075678;28;20047;-75
2023/03/09 02:45:21;;;;;;;16.47;10.97;;;2.30;74.90;;;;;;5060226;28;20136;-75
2023/03/09 02:47:48;;;;;;;17.90;11.70;;;2.30;74.90;;;;;;5058821;28;20036;-76
2023/03/09 02:50:14;;;;;;;16.03;10.73;;;2.30;75.10;;;;;;5075208;28;20040;-75
2023/03/09 02:52:40;;;;;;;16.57;11.17;;;2.30;75.00;;;;;;5058824;28;20131;-75
2023/03/09 02:55:07;;;;;;;17.77;11.40;;;2.30;75.00;;;;;;5060279;28;20131;-75
2023/03/09 02:57:33;;;;;;;16.17;10.90;;;2.30;75.10;;;;;;5075463;28;20050;-76
2023/03/09 02:59:59;;;;;;;15.30;10.77;;;2.30;75.10;;;;;;5109427;28;20507;-75
2023/03/09 03:02:25;;;;;;;18.90;12.53;;;2.30;75.10;;;;;;5058584;28;20044;-75
2023/03/09 03:04:51;;;;;;;16.50;10.97;;;2.40;75.20;;;;;;5058367;28;20036;-75
2023/03/09 03:07:16;;;;;;;18.13;12.20;;;2.30;75.10;;;;;;5102094;28;20094;-75
2023/03/09 03:09:42;;;;;;;16.10;11.00;;;2.30;75.20;;;;;;5038722;28;20055;-75
2023/03/09 03:12:08;;;;;;;17.30;10.57;;;2.30;75.20;;;;;;5060304;28;20050;-75
2023/03/09 03:14:35;;;;;;;16.33;10.63;;;2.30;75.10;;;;;;5058462;28;20040;-75
2023/03/09 03:17:01;;;;;;;16.37;11.07;;;2.30;75.10;;;;;;5075389;28;20043;-75
2023/03/09 03:19:27;;;;;;;17.00;11.37;;;2.30;75.20;;;;;;5058481;28;20032;-75
2023/03/09 03:21:52;;;;;;;17.10;11.63;;;2.30;75.20;;;;;;5058429;28;20048;-75
2023/03/09 03:24:18;;;;;;;16.00;10.37;;;2.50;75.30;;;;;;5108557;28;20043;-75
2023/03/09 03:26:44;;;;;;;15.17;10.10;;;2.30;75.30;;;;;;5108981;28;20044;-75
2023/03/09 03:29:10;;;;;;;16.60;10.60;;;2.30;75.30;;;;;;5108455;28;20047;-75
2023/03/09 03:31:35;;;;;;;15.47;10.50;;;2.30;75.20;;;;;;5078497;28;20041;-75
2023/03/09 03:34:01;;;;;;;17.80;10.43;;;2.30;75.10;;;;;;5070555;28;20032;-75
2023/03/09 03:36:27;;;;;;;14.20;9.87;;;2.30;75.10;;;;;;5078896;28;20396;-76
2023/03/09 03:38:52;;;;;;;17.03;11.13;;;2.30;75.00;;;;;;5046039;28;20130;-75
2023/03/09 03:41:18;;;;;;;15.23;10.10;;;2.30;75.00;;;;;;5081290;28;20040;-75
2023/03/09 03:43:44;;;;;;;14.17;9.77;;;2.30;75.10;;;;;;5050757;28;20071;-75
2023/03/09 03:46:10;;;;;;;16.03;9.77;;;2.30;75.00;;;;;;5062289;28;20047;-75
2023/03/09 03:48:37;;;;;;;14.10;9.90;;;2.70;75.30;;;;;;5085561;28;20407;-75
2023/03/09 03:51:03;;;;;;;14.13;9.87;;;2.30;75.10;;;;;;5061789;28;20046;-75
2023/03/09 03:53:29;;;;;;;13.53;9.77;;;2.30;75.10;;;;;;5079243;28;20055;-75
2023/03/09 03:55:54;;;;;;;14.97;10.00;;;2.30;75.10;;;;;;5043763;28;20048;-75
2023/03/09 03:58:20;;;;;;;14.30;10.10;;;2.30;75.10;;;;;;5075269;28;20082;-75
2023/03/09 04:00:46;;;;;;;13.80;9.73;;;2.30;75.10;;;;;;5078601;28;20451;-75
2023/03/09 04:03:11;;;;;;;15.57;9.97;;;2.30;75.10;;;;;;5045187;28;20032;-75
2023/03/09 04:05:37;;;;;;;16.03;9.73;;;2.30;75.10;;;;;;5061800;28;20040;-75
2023/03/09 04:08:03;;;;;;;13.70;9.57;;;2.40;75.30;;;;;;5062161;28;20388;-75
2023/03/09 04:10:29;;;;;;;14.30;9.60;;;2.30;75.20;;;;;;5061725;28;20412;-75
2023/03/09 04:12:57;;;;;;;14.50;9.20;;;2.30;75.10;;;;;;5045485;28;20414;-75
2023/03/09 04:15:22;;;;;;;13.93;9.23;;;2.30;75.10;;;;;;5041757;28;20040;-75
2023/03/09 04:17:48;;;;;;;15.43;9.60;;;2.30;75.10;;;;;;5098608;28;20096;-75
2023/03/09 04:20:14;;;;;;;13.43;8.77;;;2.30;75.10;;;;;;5044737;28;20043;-75
2023/03/09 04:22:41;;;;;;;12.30;8.77;;;2.30;75.10;;;;;;5061004;28;20048;-75
2023/03/09 04:25:07;;;;;;;11.57;8.70;;;2.30;75.00;;;;;;5084866;28;20032;-75
2023/03/09 04:27:33;;;;;;;14.97;9.60;;;2.30;75.00;;;;;;5078428;28;20437;-75
2023/03/09 04:29:58;;;;;;;14.20;9.50;;;2.30;75.10;;;;;;5077934;28;20040;-75
2023/03/09 04:32:24;;;;;;;13.30;9.00;;;2.30;75.20;;;;;;5044648;28;20508;-75
2023/03/09 04:34:50;;;;;;;13.10;8.67;;;2.30;75.20;;;;;;5044222;28;20086;-75
2023/03/09 04:37:15;;;;;;;14.67;9.37;;;2.30;75.20;;;;;;5044544;28;20073;-75
2023/03/09 04:39:41;;;;;;;17.57;10.07;;;2.30;75.20;;;;;;5044447;28;20445;-75
2023/03/09 04:42:07;;;;;;;17.77;10.80;;;2.20;75.10;;;;;;5081478;28;20146;-75
2023/03/09 04:44:32;;;;;;;15.67;9.80;;;2.40;75.30;;;;;;5077653;28;20048;-75
2023/03/09 04:46:58;;;;;;;16.10;10.90;;;2.20;75.00;;;;;;5059672;28;20036;-75
2023/03/09 04:49:25;;;;;;;14.47;9.47;;;2.20;75.10;;;;;;5044238;28;20067;-75
2023/03/09 04:51:51;;;;;;;16.07;10.53;;;2.30;75.20;;;;;;5061507;28;20051;-75
2023/03/09 04:54:17;;;;;;;13.47;9.63;;;2.20;75.20;;;;;;5094562;28;20102;-75
2023/03/09 04:56:42;;;;;;;15.87;10.47;;;2.50;75.40;;;;;;5044178;28;20491;-76
2023/03/09 04:59:08;;;;;;;15.90;9.73;;;2.20;75.60;;;;;;5077543;28;20040;-75
2023/03/09 05:01:34;;;;;;;15.33;10.13;;;2.60;75.40;;;;;;5074437;28;20047;-75
2023/03/09 05:03:59;;;;;;;16.37;11.07;;;2.20;75.20;;;;;;5040948;28;20032;-76
2023/03/09 05:06:25;;;;;;;17.17;11.33;;;2.20;75.30;;;;;;5040486;28;20044;-75
2023/03/09 05:08:51;;;;;;;18.97;11.77;;;2.20;75.30;;;;;;5063669;28;20040;-75
2023/03/09 05:11:16;;;;;;;15.47;10.50;;;2.10;75.20;;;;;;5112116;28;20032;-75
2023/03/09 05:13:42;;;;;;;17.40;11.87;;;2.20;75.40;;;;;;5097604;28;20108;-75
2023/03/09 05:16:08;;;;;;;17.87;11.73;;;2.20;75.50;;;;;;5097523;28;20073;-75
2023/03/09 05:18:35;;;;;;;16.73;10.97;;;2.10;75.40;;;;;;5070678;28;20123;-76
2023/03/09 05:21:07;;;;;;;18.63;11.37;;;2.40;75.60;;;;;;5029317;28;20456;-75
2023/03/09 05:23:34;;;;;;;17.10;12.00;;;2.10;75.40;;;;;;5056843;28;20060;-75
2023/03/09 05:26:01;;;;;;;16.67;11.00;;;2.10;75.50;;;;;;5040744;28;20090;-76
2023/03/09 05:28:30;;;;;;;16.90;11.17;;;2.50;75.80;;;;;;5040452;28;20495;-75
2023/03/09 05:30:56;;;;;;;19.40;13.43;;;2.00;75.50;;;;;;5041142;28;20036;-75
2023/03/09 05:33:22;;;;;;;16.77;11.57;;;2.00;75.70;;;;;;5027258;28;20036;-75
2023/03/09 05:35:49;;;;;;;17.67;12.67;;;2.30;75.90;;;;;;5071723;28;20055;-75
2023/03/09 05:38:14;;;;;;;17.87;12.60;;;2.00;75.70;;;;;;5040480;28;20093;-75
2023/03/09 05:40:40;;;;;;;18.90;13.03;;;2.10;75.90;;;;;;5085353;28;20040;-74
2023/03/09 05:43:06;;;;;;;20.47;13.07;;;2.00;76.00;;;;;;5055853;28;20483;-74
2023/03/09 05:45:31;;;;;;;19.07;12.87;;;2.00;76.10;;;;;;5046546;28;20098;-74
2023/03/09 05:47:57;;;;;;;18.67;12.63;;;2.00;76.00;;;;;;5039857;28;20052;-75
2023/03/09 05:50:23;;;;;;;20.40;13.33;;;2.00;76.20;;;;;;5068102;28;20032;-74
2023/03/09 05:52:48;;;;;;;21.47;14.20;;;2.00;76.20;;;;;;5049418;28;20033;-74
2023/03/09 05:55:14;;;;;;;21.33;13.90;;;2.00;76.30;;;;;;5058962;28;20063;-74
2023/03/09 05:57:40;;;;;;;21.57;12.63;;;2.00;76.40;;;;;;5027194;28;20117;-74
2023/03/09 06:00:07;;;;;;;20.40;13.37;;;2.00;76.40;;;;;;5085640;28;20149;-74
2023/03/09 06:02:34;;;;;;;21.20;13.73;;;2.00;76.60;;;;;;5055879;28;20368;-74
2023/03/09 06:05:00;;;;;;;20.03;13.77;;;2.10;76.70;;;;;;5036273;28;20037;-75
2023/03/09 06:07:28;;;;;;;23.90;14.53;;;2.00;76.60;;;;;;5069243;28;20044;-75
2023/03/09 06:09:54;;;;;;;19.83;13.37;;;2.00;76.60;;;;;;5019928;28;20056;-75
2023/03/09 06:12:20;;;;;;;23.53;14.93;;;2.00;76.70;;;;;;5054619;28;20037;-75
2023/03/09 06:14:51;;;;;;;22.33;14.13;;;2.00;76.70;;;;;;5056111;28;20044;-75
2023/03/09 06:17:17;;;;;;;24.20;14.97;;;2.00;76.80;;;;;;5056161;28;20059;-75
2023/03/09 06:19:43;;;;;;;24.33;14.43;;;2.20;77.00;;;;;;5055756;28;20041;-76
2023/03/09 06:22:10;;;;;;;19.87;13.27;;;2.30;77.00;;;;;;5058774;28;20105;-76
2023/03/09 06:24:35;;;;;;;20.97;13.67;;;2.00;76.90;;;;;;5042882;28;20113;-75
2023/03/09 06:27:04;;;;;;;22.80;14.37;;;2.00;77.00;;;;;;5059217;28;20036;-75
2023/03/09 06:29:30;;;;;;;20.97;14.10;;;2.00;77.10;;;;;;5058873;28;20047;-74
2023/03/09 06:31:55;;;;;;;22.33;14.93;;;2.30;77.70;;;;;;5041755;28;20044;-74
2023/03/09 06:34:21;;;;;;;21.97;14.10;;;2.00;77.20;;;;;;5061501;28;20032;-75
2023/03/09 06:36:47;;;;;;;22.00;13.73;;;2.00;77.30;;;;;;5095962;28;20044;-75
2023/03/09 06:39:13;;;;;;;21.93;13.90;;;2.00;77.30;;;;;;5085650;28;20040;-75
2023/03/09 06:41:39;;;;;;;21.20;14.27;;;2.10;77.50;;;;;;5058419;28;20112;-75
2023/03/09 06:44:05;;;;;;;21.37;13.90;;;2.00;77.50;;;;;;5075118;28;20566;-74
2023/03/09 06:46:31;;;;;;;21.07;13.53;;;2.10;77.50;;;;;;5059863;27;20036;-75
2023/03/09 06:48:56;;;;;;;23.30;14.20;;;2.10;77.60;;;;;;5086399;28;20036;-75
2023/03/09 06:51:22;;;;;;;22.47;13.77;;;2.50;77.90;;;;;;5078645;28;20040;-75
2023/03/09 06:53:48;;;;;;;22.10;13.00;;;2.30;77.90;;;;;;5078710;28;20490;-75
2023/03/09 06:56:14;;;;;;;22.27;13.37;;;2.40;77.90;;;;;;5058614;28;20055;-74
2023/03/09 06:58:40;;;;;;;21.33;14.03;;;2.00;77.70;;;;;;5110387;27;20530;-74
2023/03/09 07:01:11;;;;;;;22.77;14.20;;;2.00;77.90;;;;;;5083518;28;20036;-75
2023/03/09 07:03:38;;;;;;;22.03;14.03;;;2.10;78.00;;;;;;5095845;28;20104;-75
2023/03/09 07:06:04;;;;;;;21.57;14.27;;;2.10;78.00;;;;;;5077703;28;20383;-75
2023/03/09 07:08:30;;;;;;;24.23;16.43;;;2.10;78.10;;;;;;5061214;28;20127;-74
2023/03/09 07:10:56;;;;;;;21.17;13.23;;;2.10;78.10;;;;;;5060067;28;20050;-74
2023/03/09 07:13:21;;;;;;;24.60;15.07;;;2.10;78.10;;;;;;5061753;28;20043;-75
2023/03/09 07:15:47;;;;;;;22.43;13.60;;;2.10;78.10;;;;;;5093758;28;20506;-74
2023/03/09 07:18:13;;;;;;;21.20;13.97;;;2.20;78.20;;;;;;5078113;28;20485;-75
2023/03/09 07:20:40;;;;;;;19.97;13.53;;;2.10;78.10;;;;;;5078199;28;20051;-75
2023/03/09 07:23:08;;;;;;;23.43;14.50;;;2.40;78.30;;;;;;5095670;28;20043;-75
2023/03/09 07:25:35;;;;;;;22.43;14.10;;;2.20;78.40;;;;;;5094819;28;20039;-75
2023/03/09 07:28:06;;;;;;;20.93;13.33;;;2.20;78.30;;;;;;5094533;28;20032;-75
2023/03/09 07:30:33;;;;;;;21.80;14.30;;;2.20;78.20;;;;;;5095092;28;20040;-75
2023/03/09 07:33:00;;;;;;;23.53;14.67;;;2.20;78.20;;;;;;5095103;28;20043;-75
2023/03/09 07:35:26;;;;;;;23.47;14.47;;;2.50;78.40;;;;;;5095091;28;20051;-75
2023/03/09 07:37:52;;;;;;;22.37;14.33;;;2.40;78.40;;;;;;5078112;28;20556;-75
2023/03/09 07:40:18;;;;;;;21.87;14.37;;;2.20;78.30;;;;;;5094992;28;20074;-74
2023/03/09 07:42:49;;;;;;;23.00;14.63;;;2.30;78.30;;;;;;5095097;28;20108;-75
2023/03/09 07:45:15;;;;;;;21.70;14.57;;;2.40;78.40;;;;;;5078094;28;20031;-75
2023/03/09 07:47:42;;;;;;;23.50;15.27;;;2.30;78.30;;;;;;5078435;28;20046;-75
2023/03/09 07:50:08;;;;;;;21.47;14.27;;;2.30;78.40;;;;;;5094999;28;20039;-75
2023/03/09 07:52:34;;;;;;;22.23;15.53;;;2.30;78.40;;;;;;5094814;28;20040;-76
2023/03/09 07:55:01;;;;;;;21.20;14.20;;;2.30;78.20;;;;;;5094799;28;20127;-76
2023/03/09 07:57:33;;;;;;;20.17;13.93;;;2.70;78.40;;;;;;5078192;28;20546;-76
2023/03/09 08:00:00;;;;;;;21.60;14.17;;;2.70;78.30;;;;;;5094842;28;20050;-76
2023/03/09 08:02:26;;;;;;;23.00;14.60;;;2.40;78.00;;;;;;5094875;28;20043;-76
2023/03/09 08:04:52;;;;;;;20.53;13.77;;;2.50;78.10;;;;;;5077801;28;20036;-76
2023/03/09 08:07:18;;;;;;;21.00;13.97;;;2.80;78.30;;;;;;5111685;28;20673;-76
2023/03/09 08:09:44;;;;;;;20.07;13.70;;;2.50;78.20;;;;;;5111998;28;20081;-76
2023/03/09 08:12:10;;;;;;;23.87;14.60;;;2.50;78.10;;;;;;5078027;28;20039;-76
2023/03/09 08:14:36;;;;;;;20.50;13.83;;;2.50;78.10;;;;;;5078004;28;20040;-76
2023/03/09 08:17:03;;;;;;;21.87;13.23;;;2.50;77.90;;;;;;5077416;28;20495;-76
2023/03/09 08:19:30;;;;;;;20.13;13.43;;;2.60;78.00;;;;;;5078200;28;20036;-76
2023/03/09 08:21:56;;;;;;;21.83;13.17;;;2.50;78.00;;;;;;5080321;28;20100;-74
2023/03/09 08:24:22;;;;;;;21.53;14.17;;;3.00;78.30;;;;;;5098240;28;20127;-74
2023/03/09 08:26:47;;;;;;;21.43;14.00;;;2.70;78.20;;;;;;5098390;28;20082;-76
2023/03/09 08:29:13;;;;;;;19.20;12.80;;;2.70;78.20;;;;;;5081410;28;20090;-76
2023/03/09 08:31:39;;;;;;;20.13;13.27;;;2.90;78.30;;;;;;5081412;28;20044;-75
2023/03/09 08:34:05;;;;;;;20.53;13.17;;;3.00;78.30;;;;;;5097771;28;20055;-76
2023/03/09 08:36:32;;;;;;;17.40;12.20;;;2.80;78.10;;;;;;5126121;27;20032;-75
2023/03/09 08:38:58;;;;;;;20.20;13.52;;;2.80;78.00;;;;;;5078093;28;20036;-75
2023/03/09 08:41:24;;;;;;;17.53;13.33;;;2.80;77.90;;;;;;5077931;28;20128;-76
2023/03/09 08:43:50;;;;;;;19.77;12.33;;;2.80;77.80;;;;;;5113046;28;20073;-75
2023/03/09 08:46:16;;;;;;;18.27;12.63;;;2.90;77.70;;;;;;5097949;28;20035;-75
2023/03/09 08:48:43;;;;;;;21.07;14.53;;;3.00;77.70;;;;;;5098305;28;20032;-75
2023/03/09 08:51:09;;;;;;;19.60;14.03;;;3.00;77.70;;;;;;5080896;28;20356;-75
2023/03/09 08:53:36;;;;;;;19.30;13.47;;;3.00;77.70;;;;;;5097617;28;20069;-75
2023/03/09 08:56:04;;;;;;;19.80;14.00;;;3.00;77.50;;;;;;5097851;28;20031;-75
2023/03/09 08:58:29;;;;;;;19.23;13.77;;;3.00;77.40;;;;;;5080873;28;20071;-75
2023/03/09 09:00:55;;;;;;;20.30;13.73;;;3.20;77.30;;;;;;5097687;28;20079;-75
2023/03/09 09:03:21;;;;;;;20.43;13.70;;;3.30;77.30;;;;;;5097335;28;20054;-75
2023/03/09 09:05:46;;;;;;;18.30;12.10;;;3.10;77.00;;;;;;5064113;28;20038;-75
2023/03/09 09:08:12;;;;;;;18.83;12.60;;;3.10;76.80;;;;;;5097453;28;20036;-75
2023/03/09 09:10:42;;;;;;;17.40;12.33;;;3.40;76.80;;;;;;5080617;28;20027;-75
2023/03/09 09:13:08;;;;;;;18.45;12.90;;;3.20;76.50;;;;;;5097489;28;20036;-75
2023/03/09 09:15:37;;;;;;;19.58;12.40;;;3.10;76.50;;;;;;5080801;28;20101;-75
2023/03/09 09:18:03;;;;;;;20.00;13.68;;;3.20;76.60;;;;;;5081034;28;20042;-75
2023/03/09 09:20:29;;;;;;;18.43;12.23;;;3.20;76.40;;;;;;5080798;28;20435;-75
2023/03/09 09:22:54;;;;;;;17.67;12.47;;;3.20;76.30;;;;;;5097495;28;20517;-75
2023/03/09 09:25:20;;;;;;;19.03;13.13;;;3.20;76.20;;;;;;5063766;28;20032;-75
2023/03/09 09:27:50;;;;;;;17.92;12.52;;;3.30;76.10;;;;;;5092683;28;20043;-76
2023/03/09 09:30:17;;;;;;;19.23;12.02;;;3.40;76.20;;;;;;5063512;28;20039;-75
2023/03/09 09:32:44;;;;;;;17.17;11.93;;;3.30;76.10;;;;;;5079667;28;20036;-75
2023/03/09 09:35:11;;;;;;;17.08;12.07;;;3.30;76.00;;;;;;5097690;28;20043;-75
2023/03/09 09:37:37;;;;;;;16.35;12.18;;;3.60;76.00;;;;;;5080493;28;20055;-75
2023/03/09 09:40:04;;;;;;;17.80;12.45;;;3.40;75.80;;;;;;5097600;28;20130;-75
2023/03/09 09:42:36;;;;;;;17.25;12.30;;;3.40;75.80;;;;;;5080004;28;20044;-75
2023/03/09 09:45:05;;;;;;;17.48;11.60;;;3.60;76.00;;;;;;5080309;28;20042;-75
2023/03/09 09:47:32;;;;;;;16.13;11.82;;;3.50;75.80;;;;;;5079997;28;20067;-75
2023/03/09 09:50:01;;;;;;;17.58;12.63;;;3.50;75.50;;;;;;5063348;28;20035;-75
2023/03/09 09:52:37;;;;;;;18.25;12.98;;;3.80;75.40;;;;;;5097184;28;20045;-75
2023/03/09 09:55:10;;;;;;;17.15;12.20;;;3.90;75.30;;;;;;5079935;28;20092;-75
2023/03/09 09:57:42;;;;;;;16.73;11.38;;;3.60;75.10;;;;;;5079532;28;20047;-75
2023/03/09 10:00:42;;;;;;;18.13;12.10;;;3.70;74.80;;;;;;5097434;28;20040;-75
2023/03/09 10:03:19;;;;;;;16.13;11.70;;;3.70;74.60;;;;;;5064239;28;20040;-75
2023/03/09 10:05:57;;;;;;;16.27;12.02;;;3.60;74.40;;;;;;5079423;28;20039;-76
2023/03/09 10:08:43;;;;;;;18.08;12.52;;;3.70;74.50;;;;;;5113374;28;20047;-75
2023/03/09 10:11:15;;;;;;;16.98;12.32;;;3.70;74.50;;;;;;5096390;28;20039;-75
2023/03/09 10:13:46;;;;;;;16.33;12.03;;;3.80;74.30;;;;;;5103445;28;20388;-75
2023/03/09 10:16:44;;;;;;;17.00;11.55;;;3.80;74.10;;;;;;5059874;28;20449;-75
2023/03/09 10:19:28;;;;;;;16.50;11.98;;;3.80;73.80;;;;;;5075888;28;20381;-76
2023/03/09 10:22:00;;;;;;;18.02;11.60;;;3.90;73.90;;;;;;5087338;28;20067;-75
2023/03/09 10:24:35;;;;;;;18.88;13.00;;;3.80;73.80;;;;;;5096668;28;20102;-76
2023/03/09 10:27:07;;;;;;;16.67;11.60;;;3.80;73.80;;;;;;5079390;28;20047;-75
2023/03/09 10:29:46;;;;;;;19.00;13.23;;;3.80;73.70;;;;;;5096477;28;20035;-75
2023/03/09 10:32:21;;;;;;;19.00;12.90;;;3.80;73.70;;;;;;5096643;28;20452;-75
2023/03/09 10:34:57;;;;;;;17.65;12.15;;;4.10;73.80;;;;;;5079209;28;20046;-75
2023/03/09 10:37:25;;;;;;;17.17;12.30;;;3.90;73.60;;;;;;5096037;28;20035;-75
2023/03/09 10:39:51;;;;;;;17.17;11.98;;;3.90;73.60;;;;;;5079059;28;20093;-75
2023/03/09 10:42:24;;;;;;;17.50;11.77;;;3.90;73.70;;;;;;5079121;28;20079;-76
2023/03/09 10:45:12;;;;;;;19.60;13.10;;;3.90;73.90;;;;;;5096203;28;20047;-75
2023/03/09 10:48:02;;;;;;;16.58;12.90;;;3.90;73.60;;;;;;5079202;28;20464;-75
2023/03/09 10:50:31;;;;;;;17.45;12.15;;;4.00;73.70;;;;;;5095646;28;20071;-75
2023/03/09 10:52:57;;;;;;;19.05;12.27;;;4.10;73.60;;;;;;5095692;28;20121;-75
2023/03/09 10:55:27;;;;;;;17.15;12.30;;;4.00;73.20;;;;;;5078900;28;20046;-76
2023/03/09 10:58:17;;;;;;;18.13;12.00;;;4.00;73.40;;;;;;5095221;28;20048;-75
2023/03/09 11:01:00;;;;;;;16.45;11.80;;;4.20;73.70;;;;;;5078718;28;20050;-75
2023/03/09 11:03:30;;;;;;;17.10;12.40;;;4.10;73.30;;;;;;5095620;28;20057;-75
2023/03/09 11:06:35;;;;;;;15.80;11.43;;;4.20;73.20;;;;;;5095708;28;20035;-75
2023/03/09 11:09:15;;;;;;;15.95;11.23;;;4.20;73.10;;;;;;5110090;28;20040;-75
2023/03/09 11:11:43;;;;;;;16.90;11.82;;;4.30;73.10;;;;;;5075370;28;20036;-75
2023/03/09 11:14:29;;;;;;;18.60;12.45;;;4.30;72.80;;;;;;5092270;28;20222;-75
2023/03/09 11:17:00;;;;;;;18.75;13.02;;;4.30;72.20;;;;;;5094361;28;20130;-75
2023/03/09 11:19:27;;;;;;;16.70;12.32;;;4.30;72.20;;;;;;5078503;28;20039;-75
2023/03/09 11:21:56;;;;;;;15.23;10.88;;;4.40;72.30;;;;;;5078429;28;20522;-75
2023/03/09 11:24:30;;;;;;;17.25;12.32;;;4.30;72.30;;;;;;5095503;28;20039;-76
2023/03/09 11:27:05;;;;;;;17.88;12.48;;;4.40;72.20;;;;;;5078370;28;20032;-76
2023/03/09 11:30:01;;;;;;;16.45;12.32;;;4.40;72.00;;;;;;5095608;28;20100;-75
2023/03/09 11:32:27;;;;;;;15.50;11.38;;;4.40;72.00;;;;;;5095651;28;20360;-75
2023/03/09 11:34:53;;;;;;;14.48;10.90;;;4.40;72.10;;;;;;5095312;28;20036;-75
2023/03/09 11:37:43;;;;;;;15.85;11.77;;;4.40;72.00;;;;;;5095137;28;20031;-76
2023/03/09 11:40:19;;;;;;;16.40;11.93;;;4.50;71.70;;;;;;5077228;28;20524;-76
2023/03/09 11:43:00;;;;;;;15.25;11.07;;;4.50;71.80;;;;;;5077889;28;20051;-75
2023/03/09 11:45:29;;;;;;;16.77;12.20;;;4.50;71.90;;;;;;5095057;28;20042;-76
2023/03/09 11:48:04;;;;;;;16.00;10.88;;;4.50;71.70;;;;;;5070945;28;20612;-75
2023/03/09 11:50:42;;;;;;;16.58;12.25;;;4.50;71.60;;;;;;5086700;28;20040;-76
2023/03/09 11:53:24;;;;;;;15.23;11.38;;;4.50;71.40;;;;;;5118407;28;20517;-76
2023/03/09 11:55:54;;;;;;;15.73;11.77;;;4.60;71.40;;;;;;5089968;28;20564;-76
2023/03/09 11:58:28;;;;;;;15.55;11.68;;;4.60;71.60;;;;;;5076023;28;20069;-76
2023/03/09 12:01:14;;;;;;;15.07;11.50;;;4.60;71.30;;;;;;5092906;28;20051;-76
2023/03/09 12:03:48;;;;;;;16.08;12.02;;;4.60;71.00;;;;;;5092360;28;20043;-76
2023/03/09 12:06:52;;;;;;;16.45;11.73;;;4.60;71.10;;;;;;5092042;28;20036;-76
2023/03/09 12:09:36;;;;;;;15.50;11.38;;;4.70;71.00;;;;;;5009654;28;20037;-76
2023/03/09 12:12:23;;;;;;;13.37;9.90;;;4.70;70.80;;;;;;5086462;28;20039;-76
2023/03/09 12:14:55;;;;;;;18.98;11.98;;;4.70;70.90;;;;;;5075954;28;20333;-75
2023/03/09 12:17:27;;;;;;;16.90;12.07;;;4.70;70.80;;;;;;5075690;28;20045;-76
2023/03/09 12:19:54;;;;;;;15.40;11.70;;;4.70;71.20;;;;;;5091632;28;20046;-76
2023/03/09 12:22:30;;;;;;;15.73;11.65;;;4.70;70.70;;;;;;5092519;28;20078;-76
2023/03/09 12:24:59;;;;;;;17.35;12.32;;;4.70;70.90;;;;;;5075655;28;20044;-76
2023/03/09 12:27:28;;;;;;;16.90;12.10;;;4.80;70.80;;;;;;5092378;28;20039;-76
2023/03/09 12:29:54;;;;;;;16.90;11.90;;;4.80;70.70;;;;;;5092232;28;20543;-76
2023/03/09 12:32:28;;;;;;;18.55;12.70;;;4.80;70.50;;;;;;5076183;28;20058;-76
2023/03/09 12:34:56;;;;;;;16.70;12.45;;;4.80;70.50;;;;;;5092296;28;20067;-76
2023/03/09 12:37:31;;;;;;;16.02;11.80;;;4.80;70.50;;;;;;5122533;27;20037;-77
2023/03/09 12:40:20;;;;;;;16.52;12.07;;;4.80;70.60;;;;;;5092434;28;20063;-76
2023/03/09 12:42:49;;;;;;;15.77;12.75;;;4.80;70.70;;;;;;5112729;27;20035;-75
2023/03/09 12:45:17;;;;;;;16.10;12.70;;;4.80;71.00;;;;;;5092310;28;20071;-75
2023/03/09 12:48:06;;;;;;;16.17;12.18;;;4.80;71.00;;;;;;5109086;28;20093;-75